Time;durP1;ratioP1;P1;durP2;ratioP2;P2;SDS_P1;SDS_P2;PMS_P1;PMS_P2;Temp;Humidity;BMP_temperature;BMP_pressure;BME280_temperature;BME280_humidity;BME280_pressure;Samples;Min_cycle;Max_cycle;Signal;HPM_P1;HPM_P2
2023/05/17 00:00:23;;;;;;;16.13;3.35;;;9.30;99.90;;;;;;4252810;27;20042;-86
2023/05/17 00:02:24;;;;;;;13.05;2.60;;;9.30;99.90;;;;;;4226592;28;20055;-85
2023/05/17 00:04:25;;;;;;;15.57;2.92;;;9.30;99.90;;;;;;4234886;28;20047;-84
2023/05/17 00:06:26;;;;;;;16.73;2.70;;;9.40;99.90;;;;;;4234232;28;20082;-85
2023/05/17 00:08:26;;;;;;;14.20;2.65;;;9.40;99.90;;;;;;4215673;28;20081;-86
2023/05/17 00:10:27;;;;;;;16.77;3.00;;;9.40;99.90;;;;;;4234356;28;20509;-84
2023/05/17 00:12:29;;;;;;;9.68;2.63;;;9.40;99.90;;;;;;4215173;28;20105;-86
2023/05/17 00:14:30;;;;;;;14.63;3.10;;;9.50;99.90;;;;;;4216176;28;20051;-86
2023/05/17 00:16:31;;;;;;;13.95;3.10;;;9.50;99.90;;;;;;4215179;28;20044;-85
2023/05/17 00:18:32;;;;;;;17.58;2.50;;;9.50;99.90;;;;;;4216294;28;20103;-85
2023/05/17 00:20:35;;;;;;;15.75;3.00;;;9.50;99.90;;;;;;4212518;28;20565;-85
2023/05/17 00:22:36;;;;;;;14.48;2.13;;;9.50;99.90;;;;;;4234117;28;20108;-84
2023/05/17 00:24:37;;;;;;;29.33;4.45;;;9.60;99.90;;;;;;4234006;28;20047;-84
2023/05/17 00:26:39;;;;;;;12.25;2.13;;;9.60;99.90;;;;;;4233295;28;20453;-84
2023/05/17 00:28:40;;;;;;;16.95;2.33;;;9.50;99.90;;;;;;4233261;28;20079;-84
2023/05/17 00:30:42;;;;;;;18.45;3.33;;;9.50;99.90;;;;;;4232993;28;20548;-84
2023/05/17 00:32:45;;;;;;;13.73;2.58;;;9.50;99.90;;;;;;4233845;28;20032;-84
2023/05/17 00:34:46;;;;;;;16.27;2.20;;;9.40;99.90;;;;;;4232277;27;20047;-84
2023/05/17 00:36:48;;;;;;;17.10;2.15;;;9.40;99.90;;;;;;4250762;27;20042;-84
2023/05/17 00:38:49;;;;;;;19.67;3.50;;;9.40;99.90;;;;;;4215716;28;20056;-84
2023/05/17 00:40:52;;;;;;;14.07;2.03;;;9.30;99.90;;;;;;4249509;27;20539;-84
2023/05/17 00:42:53;;;;;;;19.48;3.00;;;9.30;99.90;;;;;;4231741;28;20047;-84
2023/05/17 00:44:54;;;;;;;11.38;1.77;;;9.30;99.90;;;;;;4248530;27;20046;-83
2023/05/17 00:46:56;;;;;;;10.25;2.80;;;9.20;99.90;;;;;;4231735;28;20051;-85
2023/05/17 00:48:58;;;;;;;17.45;2.22;;;9.20;99.90;;;;;;4249325;27;20082;-85
2023/05/17 00:50:59;;;;;;;12.80;1.75;;;9.20;99.90;;;;;;4232317;28;20066;-85
2023/05/17 00:52:59;;;;;;;22.00;3.00;;;9.20;99.90;;;;;;4231965;28;20044;-85
2023/05/17 00:55:02;;;;;;;13.85;2.38;;;9.20;99.90;;;;;;4250415;27;20562;-86
2023/05/17 00:57:03;;;;;;;17.95;2.35;;;9.20;99.90;;;;;;4232733;28;20126;-85
2023/05/17 00:59:05;;;;;;;16.45;2.60;;;9.20;99.90;;;;;;4250805;27;20043;-85
2023/05/17 01:01:06;;;;;;;14.98;2.22;;;9.20;99.90;;;;;;4250920;27;20045;-85
2023/05/17 01:03:07;;;;;;;15.48;3.38;;;9.30;99.90;;;;;;4249141;27;20043;-85
2023/05/17 01:05:08;;;;;;;21.85;2.67;;;9.20;99.90;;;;;;4231662;28;20054;-85
2023/05/17 01:07:09;;;;;;;10.25;1.83;;;9.20;99.90;;;;;;4250459;27;20031;-84
2023/05/17 01:09:11;;;;;;;19.90;3.53;;;9.30;99.90;;;;;;4249546;27;20403;-86
2023/05/17 01:11:30;;;;;;;20.90;2.50;;;8.80;99.90;;;;;;4250803;27;20491;-86
2023/05/17 01:13:43;;;;;;;14.98;2.83;;;9.20;99.90;;;;;;4250116;28;20495;-85
2023/05/17 01:15:55;;;;;;;11.88;1.75;;;9.10;99.90;;;;;;4250261;28;20043;-85
2023/05/17 01:18:09;;;;;;;12.40;2.03;;;9.10;99.90;;;;;;4250718;28;20135;-85
2023/05/17 01:20:20;;;;;;;15.45;3.40;;;9.10;99.90;;;;;;4250264;27;20054;-85
2023/05/17 01:22:32;;;;;;;15.10;2.67;;;9.10;99.90;;;;;;4252843;27;20039;-86
2023/05/17 01:24:44;;;;;;;12.40;2.05;;;9.10;99.90;;;;;;4253146;27;20047;-84
2023/05/17 01:26:49;;;;;;;17.42;3.13;;;9.10;99.90;;;;;;4252347;27;20064;-85
2023/05/17 01:28:52;;;;;;;15.35;2.33;;;9.10;99.90;;;;;;4244074;27;20051;-86
2023/05/17 01:30:57;;;;;;;15.02;2.10;;;9.10;99.90;;;;;;4236931;28;20050;-86
2023/05/17 01:32:59;;;;;;;11.60;2.42;;;9.20;99.90;;;;;;4236531;28;20483;-86
2023/05/17 01:35:02;;;;;;;19.75;2.10;;;9.20;99.90;;;;;;4236356;28;20043;-83
2023/05/17 01:37:03;;;;;;;16.48;1.42;;;9.20;99.90;;;;;;4219080;28;20055;-85
2023/05/17 01:39:04;;;;;;;10.95;1.80;;;9.30;99.90;;;;;;4235546;28;20039;-85
2023/05/17 01:41:27;;;;;;;15.63;1.65;;;9.30;99.90;;;;;;4235750;28;20399;-84
2023/05/17 01:43:50;;;;;;;12.75;2.25;;;9.30;99.90;;;;;;4219527;28;20040;-84
2023/05/17 01:46:06;;;;;;;10.75;1.20;;;9.30;99.90;;;;;;4253327;27;20440;-85
2023/05/17 01:48:14;;;;;;;16.02;1.40;;;9.30;99.90;;;;;;4252193;27;20039;-85
2023/05/17 01:50:18;;;;;;;13.57;1.85;;;9.30;99.90;;;;;;4252887;27;20054;-84
2023/05/17 01:52:34;;;;;;;10.93;1.48;;;9.30;99.90;;;;;;4253210;27;20082;-84
2023/05/17 01:54:46;;;;;;;12.70;1.58;;;9.20;99.90;;;;;;4252400;27;20548;-84
2023/05/17 01:56:52;;;;;;;13.05;2.20;;;9.20;99.90;;;;;;4252987;27;20039;-84
2023/05/17 01:58:55;;;;;;;11.27;1.45;;;9.10;99.90;;;;;;4234451;28;20415;-84
2023/05/17 02:00:59;;;;;;;10.52;1.25;;;9.10;99.90;;;;;;4251132;27;20127;-85
2023/05/17 02:03:00;;;;;;;10.98;2.13;;;9.00;99.90;;;;;;4253633;27;20534;-84
2023/05/17 02:05:02;;;;;;;6.10;1.10;;;9.00;99.90;;;;;;4252436;27;20050;-84
2023/05/17 02:07:03;;;;;;;13.35;1.95;;;8.90;99.90;;;;;;4234840;28;20098;-84
2023/05/17 02:09:03;;;;;;;9.52;1.95;;;8.90;99.90;;;;;;4252015;27;20411;-84
2023/05/17 02:11:04;;;;;;;6.03;1.08;;;8.90;99.90;;;;;;4252725;27;20100;-84
2023/05/17 02:13:07;;;;;;;14.90;1.95;;;8.90;99.90;;;;;;4234460;28;20046;-83
2023/05/17 02:15:10;;;;;;;7.35;1.35;;;8.80;99.90;;;;;;4251970;27;20043;-84
2023/05/17 02:17:12;;;;;;;8.80;2.03;;;8.80;99.90;;;;;;4253218;27;20046;-85
2023/05/17 02:19:13;;;;;;;13.02;1.30;;;8.80;99.90;;;;;;4235494;28;20116;-84
2023/05/17 02:21:17;;;;;;;12.85;1.90;;;8.80;99.90;;;;;;4236181;28;20052;-84
2023/05/17 02:23:17;;;;;;;6.38;1.95;;;8.90;99.90;;;;;;4233616;28;20051;-83
2023/05/17 02:25:18;;;;;;;10.50;1.90;;;8.80;99.90;;;;;;4251727;27;20107;-85
2023/05/17 02:27:21;;;;;;;7.60;1.30;;;9.40;99.90;;;;;;4234789;28;20168;-84
2023/05/17 02:29:22;;;;;;;13.30;1.52;;;8.80;99.90;;;;;;4252616;27;20106;-84
2023/05/17 02:31:25;;;;;;;13.30;2.00;;;8.80;99.90;;;;;;4251477;27;20065;-84
2023/05/17 02:33:26;;;;;;;7.05;1.13;;;8.80;99.90;;;;;;4232262;28;20039;-84
2023/05/17 02:35:27;;;;;;;10.25;2.45;;;8.80;99.90;;;;;;4233428;28;20039;-84
2023/05/17 02:37:28;;;;;;;9.57;1.95;;;8.70;99.90;;;;;;4252135;27;20036;-84
2023/05/17 02:39:28;;;;;;;7.65;1.35;;;8.70;99.90;;;;;;4251767;27;20080;-84
2023/05/17 02:41:30;;;;;;;8.70;1.15;;;9.00;99.90;;;;;;4252674;27;20111;-84
2023/05/17 02:43:32;;;;;;;12.63;2.10;;;8.70;99.90;;;;;;4252426;27;20126;-84
2023/05/17 02:45:33;;;;;;;10.00;1.27;;;8.70;99.90;;;;;;4252625;27;20043;-84
2023/05/17 02:47:36;;;;;;;19.90;2.30;;;8.70;99.90;;;;;;4251889;27;20041;-85
2023/05/17 02:49:36;;;;;;;7.55;1.40;;;8.70;99.90;;;;;;4252520;27;20051;-84
2023/05/17 02:51:37;;;;;;;9.77;1.20;;;8.70;99.90;;;;;;4251212;27;20503;-83
2023/05/17 02:53:39;;;;;;;15.45;2.35;;;8.60;99.90;;;;;;4252375;27;20130;-84
2023/05/17 02:55:40;;;;;;;5.15;0.98;;;8.60;99.90;;;;;;4252178;27;20411;-84
2023/05/17 02:57:41;;;;;;;5.82;1.35;;;8.60;99.90;;;;;;4251556;27;20467;-84
2023/05/17 02:59:43;;;;;;;10.93;1.30;;;8.60;99.90;;;;;;4251887;27;20096;-84
2023/05/17 03:01:45;;;;;;;10.35;1.15;;;8.60;99.90;;;;;;4249927;27;20051;-85
2023/05/17 03:03:45;;;;;;;5.32;1.20;;;9.00;99.90;;;;;;4252670;27;20079;-84
2023/05/17 03:05:46;;;;;;;7.47;1.45;;;8.50;99.90;;;;;;4250020;27;20074;-84
2023/05/17 03:07:47;;;;;;;11.95;2.13;;;8.50;99.90;;;;;;4234220;28;20070;-85
2023/05/17 03:09:48;;;;;;;8.48;1.48;;;8.40;99.90;;;;;;4215994;28;20076;-84
2023/05/17 03:11:50;;;;;;;8.70;1.50;;;8.40;99.90;;;;;;4234165;28;20072;-84
2023/05/17 03:13:51;;;;;;;9.63;1.35;;;8.40;99.90;;;;;;4234173;28;20047;-84
2023/05/17 03:15:52;;;;;;;13.77;1.90;;;8.30;99.90;;;;;;4233974;28;20044;-85
2023/05/17 03:17:53;;;;;;;4.57;0.93;;;8.40;99.90;;;;;;4234406;28;20502;-85
2023/05/17 03:19:54;;;;;;;12.10;1.85;;;8.40;99.90;;;;;;4232963;28;20043;-84
2023/05/17 03:21:55;;;;;;;12.10;1.48;;;8.40;99.90;;;;;;4242770;27;20039;-84
2023/05/17 03:23:55;;;;;;;10.05;2.13;;;8.80;99.90;;;;;;4250618;27;20063;-84
2023/05/17 03:25:56;;;;;;;9.65;1.10;;;8.40;99.90;;;;;;4249968;27;20475;-84
2023/05/17 03:27:58;;;;;;;8.52;1.90;;;8.50;99.90;;;;;;4232070;28;20507;-84
2023/05/17 03:29:59;;;;;;;6.70;1.50;;;8.50;99.90;;;;;;4233090;27;20438;-84
2023/05/17 03:32:00;;;;;;;12.48;1.45;;;8.40;99.90;;;;;;4233407;28;20054;-84
2023/05/17 03:34:00;;;;;;;6.07;1.00;;;8.50;99.90;;;;;;4233020;28;20089;-84
2023/05/17 03:36:02;;;;;;;7.20;1.38;;;8.50;99.90;;;;;;4233241;28;20047;-84
2023/05/17 03:38:04;;;;;;;9.60;1.05;;;8.50;99.90;;;;;;4241426;27;20039;-84
2023/05/17 03:40:05;;;;;;;13.32;1.38;;;8.50;99.90;;;;;;4231932;28;20051;-84
2023/05/17 03:42:06;;;;;;;13.32;1.52;;;8.50;99.90;;;;;;4251581;27;20055;-84
2023/05/17 03:44:07;;;;;;;5.82;1.02;;;8.50;99.90;;;;;;4248578;27;20073;-84
2023/05/17 03:46:08;;;;;;;8.15;1.42;;;8.50;99.90;;;;;;4231923;28;20047;-84
2023/05/17 03:48:10;;;;;;;9.73;1.42;;;8.50;99.90;;;;;;4231075;28;20039;-84
2023/05/17 03:50:11;;;;;;;5.82;1.08;;;8.10;99.90;;;;;;4231884;28;20054;-85
2023/05/17 03:52:12;;;;;;;7.28;0.90;;;8.60;99.90;;;;;;4249353;27;20456;-84
2023/05/17 03:54:12;;;;;;;10.88;1.98;;;8.60;99.90;;;;;;4249947;27;20047;-84
2023/05/17 03:56:14;;;;;;;4.25;0.80;;;8.60;99.90;;;;;;4231601;28;20547;-84
2023/05/17 03:58:16;;;;;;;7.93;0.90;;;8.50;99.90;;;;;;4227962;28;20048;-84
2023/05/17 04:00:22;;;;;;;3.83;0.75;;;8.50;99.90;;;;;;4233889;28;20051;-83
2023/05/17 04:02:22;;;;;;;11.15;1.20;;;8.50;99.90;;;;;;4232519;28;20399;-83
2023/05/17 04:04:24;;;;;;;10.38;1.80;;;8.50;99.90;;;;;;4215126;28;20051;-84
2023/05/17 04:06:26;;;;;;;8.75;1.08;;;8.50;99.90;;;;;;4215210;28;20074;-85
2023/05/17 04:08:26;;;;;;;11.20;1.80;;;8.50;99.90;;;;;;4233240;28;20563;-84
2023/05/17 04:10:27;;;;;;;9.57;0.95;;;8.60;99.90;;;;;;4215558;28;20054;-84
2023/05/17 04:12:29;;;;;;;5.15;0.90;;;8.50;99.90;;;;;;4241960;27;20047;-84
2023/05/17 04:14:31;;;;;;;10.95;1.17;;;8.60;99.90;;;;;;4249674;27;20039;-85
2023/05/17 04:16:31;;;;;;;10.02;1.33;;;8.50;99.90;;;;;;4250070;27;20383;-85
2023/05/17 04:18:37;;;;;;;7.53;1.48;;;8.50;99.90;;;;;;4231767;28;20051;-84
2023/05/17 04:20:38;;;;;;;10.73;3.05;;;9.00;99.90;;;;;;4231763;28;20040;-84
2023/05/17 04:22:39;;;;;;;5.53;0.90;;;8.50;99.90;;;;;;4249531;27;20228;-83
2023/05/17 04:24:40;;;;;;;8.52;2.00;;;8.60;99.90;;;;;;4249205;27;20055;-83
2023/05/17 04:26:41;;;;;;;6.55;1.40;;;8.50;99.90;;;;;;4248760;27;20043;-84
2023/05/17 04:28:41;;;;;;;8.68;1.98;;;8.50;99.90;;;;;;4239402;27;20036;-83
2023/05/17 04:30:44;;;;;;;5.25;0.90;;;8.60;99.90;;;;;;4232695;28;20048;-84
2023/05/17 04:32:46;;;;;;;12.38;2.05;;;7.70;99.90;;;;;;4214110;28;20113;-84
2023/05/17 04:34:47;;;;;;;7.25;1.27;;;8.50;99.90;;;;;;4233594;27;20048;-84
2023/05/17 04:36:48;;;;;;;7.45;1.60;;;7.90;99.90;;;;;;4249442;27;20399;-84
2023/05/17 04:38:49;;;;;;;11.35;1.77;;;8.50;99.90;;;;;;4225359;28;20048;-85
2023/05/17 04:40:51;;;;;;;6.97;1.30;;;8.60;99.90;;;;;;4230942;28;20057;-84
2023/05/17 04:42:52;;;;;;;5.93;0.95;;;8.70;99.90;;;;;;4251963;27;20051;-83
2023/05/17 04:44:53;;;;;;;5.35;0.90;;;8.60;99.90;;;;;;4248373;27;20506;-84
2023/05/17 04:46:53;;;;;;;6.90;1.23;;;8.60;99.90;;;;;;4250085;27;20388;-84
2023/05/17 04:48:55;;;;;;;5.30;1.00;;;8.60;99.90;;;;;;4248955;27;20039;-84
2023/05/17 04:50:59;;;;;;;9.63;1.55;;;8.60;99.90;;;;;;4249457;27;20050;-83
2023/05/17 04:53:00;;;;;;;8.80;2.05;;;8.60;99.90;;;;;;4248611;27;20479;-84
2023/05/17 04:55:00;;;;;;;17.30;2.10;;;8.60;99.90;;;;;;4248799;27;20127;-85
2023/05/17 04:57:02;;;;;;;9.82;1.08;;;8.60;99.90;;;;;;4230900;28;20083;-85
2023/05/17 04:59:03;;;;;;;4.10;1.05;;;8.70;99.90;;;;;;4249115;27;20078;-84
2023/05/17 05:01:04;;;;;;;7.45;0.93;;;9.20;99.90;;;;;;4248758;27;20031;-84
2023/05/17 05:03:06;;;;;;;10.55;1.40;;;8.70;99.90;;;;;;4230964;28;20052;-84
2023/05/17 05:05:08;;;;;;;9.50;1.60;;;8.80;99.90;;;;;;4214989;28;20040;-84
2023/05/17 05:07:09;;;;;;;8.15;0.95;;;8.70;99.90;;;;;;4230529;28;20557;-84
2023/05/17 05:09:10;;;;;;;9.00;1.08;;;8.80;99.90;;;;;;4249581;27;20074;-85
2023/05/17 05:11:11;;;;;;;7.03;1.88;;;8.90;99.90;;;;;;4248991;27;20122;-84
2023/05/17 05:13:12;;;;;;;9.05;1.75;;;8.90;99.90;;;;;;4248380;27;20047;-85
2023/05/17 05:15:12;;;;;;;5.78;1.52;;;9.00;99.90;;;;;;4250366;28;20054;-85
2023/05/17 05:17:14;;;;;;;6.47;1.10;;;9.40;99.90;;;;;;4229625;28;20541;-85
2023/05/17 05:19:15;;;;;;;5.20;1.52;;;9.00;99.90;;;;;;4230480;28;20052;-84
2023/05/17 05:21:16;;;;;;;8.82;1.10;;;9.00;99.90;;;;;;4229861;28;20423;-84
2023/05/17 05:23:17;;;;;;;13.07;2.45;;;9.00;99.90;;;;;;4247825;28;20105;-84
2023/05/17 05:25:19;;;;;;;5.35;1.00;;;9.10;99.90;;;;;;4248534;28;20482;-84
2023/05/17 05:27:20;;;;;;;13.43;1.88;;;9.10;99.90;;;;;;4230020;28;20523;-85
2023/05/17 05:29:21;;;;;;;26.63;3.63;;;9.10;99.90;;;;;;4248543;28;20043;-84
2023/05/17 05:31:22;;;;;;;12.07;2.03;;;9.10;99.90;;;;;;4230030;28;20062;-84
2023/05/17 05:33:23;;;;;;;7.47;1.00;;;9.10;99.90;;;;;;4248619;28;20387;-84
2023/05/17 05:35:28;;;;;;;10.63;1.40;;;9.10;99.90;;;;;;4248196;28;20071;-85
2023/05/17 05:37:30;;;;;;;10.80;1.75;;;9.10;99.90;;;;;;4249592;28;20087;-85
2023/05/17 05:39:31;;;;;;;10.82;1.60;;;9.10;99.90;;;;;;4250380;28;20039;-85
2023/05/17 05:41:32;;;;;;;17.70;2.28;;;9.10;99.90;;;;;;4250147;28;20051;-84
2023/05/17 05:43:34;;;;;;;18.02;3.08;;;9.10;99.90;;;;;;4248155;28;20055;-85
2023/05/17 05:45:36;;;;;;;10.77;1.48;;;9.10;99.90;;;;;;4246026;28;20058;-85
2023/05/17 05:47:37;;;;;;;13.02;2.35;;;9.20;99.90;;;;;;4231669;28;20040;-85
2023/05/17 05:49:38;;;;;;;9.98;1.98;;;9.20;99.90;;;;;;4249324;28;20577;-85
2023/05/17 05:51:40;;;;;;;7.25;1.10;;;9.30;99.90;;;;;;4232094;28;20051;-85
2023/05/17 05:53:41;;;;;;;9.32;1.50;;;9.40;99.90;;;;;;4231223;28;20044;-85
2023/05/17 05:55:43;;;;;;;10.02;2.30;;;9.50;99.90;;;;;;4248118;28;20050;-85
2023/05/17 05:57:44;;;;;;;9.10;1.55;;;9.80;99.90;;;;;;4248460;28;20043;-84
2023/05/17 05:59:46;;;;;;;9.90;2.30;;;9.60;99.90;;;;;;4247951;28;20043;-85
2023/05/17 06:01:47;;;;;;;13.13;1.35;;;9.60;99.90;;;;;;4248706;28;20043;-85
2023/05/17 06:03:48;;;;;;;6.22;1.30;;;9.70;99.90;;;;;;4248217;28;20054;-85
2023/05/17 06:05:49;;;;;;;8.82;1.67;;;9.70;99.90;;;;;;4248958;27;20428;-85
2023/05/17 06:07:50;;;;;;;9.75;1.60;;;9.70;99.90;;;;;;4251230;27;20043;-85
2023/05/17 06:09:50;;;;;;;12.98;2.03;;;9.70;99.90;;;;;;4250956;27;20039;-86
2023/05/17 06:11:54;;;;;;;8.43;2.10;;;9.70;99.90;;;;;;4223093;28;20050;-85
2023/05/17 06:13:56;;;;;;;6.65;1.52;;;9.80;99.90;;;;;;4229135;28;20640;-85
2023/05/17 06:15:58;;;;;;;9.77;1.50;;;9.80;99.90;;;;;;4251700;27;20047;-86
2023/05/17 06:18:00;;;;;;;12.32;1.38;;;9.80;99.90;;;;;;4253067;27;20091;-86
2023/05/17 06:20:01;;;;;;;13.82;1.83;;;9.80;99.90;;;;;;4229442;28;20553;-88
2023/05/17 06:22:02;;;;;;;12.23;2.55;;;9.80;99.90;;;;;;4215855;28;20048;-86
2023/05/17 06:24:03;;;;;;;14.40;3.03;;;9.70;99.90;;;;;;4247182;27;20506;-86
2023/05/17 06:26:09;;;;;;;14.02;2.35;;;9.70;99.90;;;;;;4223910;28;20072;-87
2023/05/17 06:28:09;;;;;;;10.68;2.15;;;9.70;99.90;;;;;;4247958;27;20078;-86
2023/05/17 06:30:11;;;;;;;8.20;1.60;;;9.70;99.90;;;;;;4241006;27;20032;-85
2023/05/17 06:32:13;;;;;;;17.83;2.45;;;9.80;99.90;;;;;;4242433;27;20043;-86
2023/05/17 06:34:14;;;;;;;13.70;1.73;;;9.80;99.90;;;;;;4252482;27;20035;-85
2023/05/17 06:36:15;;;;;;;10.10;2.10;;;9.90;99.90;;;;;;4251435;27;20047;-85
2023/05/17 06:38:16;;;;;;;16.83;2.10;;;9.90;99.90;;;;;;4248794;27;20053;-85
2023/05/17 06:40:18;;;;;;;8.35;2.13;;;10.10;99.90;;;;;;4217534;28;20080;-83
2023/05/17 06:42:18;;;;;;;9.50;2.22;;;10.20;99.90;;;;;;4239811;27;20044;-86
2023/05/17 06:44:19;;;;;;;10.57;2.25;;;10.30;99.90;;;;;;4237139;28;20043;-86
2023/05/17 06:46:20;;;;;;;26.88;2.50;;;10.60;99.90;;;;;;4244265;27;20035;-86
2023/05/17 06:48:20;;;;;;;8.32;1.88;;;10.40;99.90;;;;;;4253602;27;20043;-86
2023/05/17 06:50:25;;;;;;;14.50;2.30;;;10.50;99.90;;;;;;4245448;27;20547;-85
2023/05/17 06:52:26;;;;;;;14.30;1.92;;;10.50;99.90;;;;;;4244512;27;20518;-85
2023/05/17 06:54:27;;;;;;;10.38;2.15;;;10.50;99.90;;;;;;4243186;27;20039;-86
2023/05/17 06:56:27;;;;;;;14.05;2.20;;;10.60;99.90;;;;;;4216580;28;20155;-87
2023/05/17 06:58:28;;;;;;;9.95;1.55;;;10.60;99.90;;;;;;4244421;27;20051;-85
2023/05/17 07:00:30;;;;;;;8.95;1.20;;;10.60;99.90;;;;;;4226104;28;20040;-86
2023/05/17 07:02:31;;;;;;;8.23;1.45;;;10.60;99.90;;;;;;4244698;27;20376;-86
2023/05/17 07:04:32;;;;;;;10.18;1.88;;;10.70;99.90;;;;;;4252957;27;20047;-86
2023/05/17 07:06:34;;;;;;;7.25;1.42;;;10.80;99.90;;;;;;4251126;27;20368;-86
2023/05/17 07:08:35;;;;;;;10.27;2.63;;;10.80;99.90;;;;;;4246310;27;20051;-86
2023/05/17 07:10:36;;;;;;;10.93;1.70;;;10.90;99.90;;;;;;4251499;27;20562;-85
2023/05/17 07:12:37;;;;;;;12.88;2.20;;;11.20;99.90;;;;;;4235303;28;20052;-85
2023/05/17 07:14:40;;;;;;;9.23;1.52;;;10.90;99.90;;;;;;4245677;27;20043;-86
2023/05/17 07:16:41;;;;;;;5.30;0.98;;;10.90;99.90;;;;;;4239661;27;20040;-86
2023/05/17 07:18:41;;;;;;;9.45;1.50;;;11.00;99.90;;;;;;4227545;28;20052;-85
2023/05/17 07:20:42;;;;;;;12.48;1.38;;;11.00;99.90;;;;;;4239974;27;20047;-86
2023/05/17 07:22:43;;;;;;;14.07;2.15;;;11.10;99.90;;;;;;4227934;28;20039;-86
2023/05/17 07:24:45;;;;;;;13.93;2.53;;;11.10;99.90;;;;;;4233203;28;20039;-86
2023/05/17 07:26:45;;;;;;;5.93;2.03;;;11.10;99.90;;;;;;4244289;27;20103;-86
2023/05/17 07:28:47;;;;;;;6.70;1.30;;;11.10;99.90;;;;;;4238814;27;20031;-86
2023/05/17 07:30:48;;;;;;;11.70;1.70;;;11.10;99.90;;;;;;4227468;28;20036;-86
2023/05/17 07:32:50;;;;;;;14.85;1.50;;;11.20;99.90;;;;;;4204455;28;20052;-86
2023/05/17 07:34:51;;;;;;;13.40;2.85;;;11.20;99.90;;;;;;4244935;27;20498;-85
2023/05/17 07:36:52;;;;;;;9.90;1.40;;;11.10;99.90;;;;;;4220000;28;20052;-86
2023/05/17 07:38:53;;;;;;;3.95;1.45;;;11.10;99.90;;;;;;4234112;28;20479;-86
2023/05/17 07:40:54;;;;;;;9.38;1.40;;;11.20;99.90;;;;;;4235829;27;20081;-86
2023/05/17 07:42:55;;;;;;;13.63;1.63;;;11.30;99.90;;;;;;4233473;27;20495;-85
2023/05/17 07:44:56;;;;;;;7.85;1.10;;;11.30;99.90;;;;;;4233676;28;20406;-85
2023/05/17 07:46:56;;;;;;;9.10;1.58;;;11.50;99.90;;;;;;4247287;27;20432;-85
2023/05/17 07:48:57;;;;;;;6.65;0.95;;;11.50;99.90;;;;;;4251260;27;20547;-86
2023/05/17 07:50:58;;;;;;;10.07;1.35;;;11.40;99.90;;;;;;4250469;27;20090;-86
2023/05/17 07:52:59;;;;;;;6.95;1.00;;;11.50;99.90;;;;;;4249531;27;20443;-86
2023/05/17 07:55:00;;;;;;;9.02;1.33;;;11.50;99.90;;;;;;4233243;28;20039;-86
2023/05/17 07:57:01;;;;;;;12.82;1.38;;;11.50;99.90;;;;;;4231275;28;20047;-86
2023/05/17 07:59:01;;;;;;;10.80;1.33;;;11.50;99.90;;;;;;4251070;27;20103;-86
2023/05/17 08:01:02;;;;;;;7.57;1.63;;;11.50;99.90;;;;;;4250389;27;20039;-86
2023/05/17 08:03:03;;;;;;;14.32;2.25;;;11.50;99.90;;;;;;4249017;27;20080;-86
2023/05/17 08:05:05;;;;;;;8.02;2.15;;;11.60;99.90;;;;;;4244941;27;20036;-85
2023/05/17 08:07:06;;;;;;;7.78;1.40;;;11.80;99.90;;;;;;4215168;28;20044;-85
2023/05/17 08:09:07;;;;;;;7.90;1.35;;;12.00;99.90;;;;;;4238331;27;20112;-86
2023/05/17 08:11:10;;;;;;;9.55;1.60;;;12.20;99.90;;;;;;4249811;27;20054;-88
2023/05/17 08:13:10;;;;;;;12.10;2.22;;;12.30;99.90;;;;;;4250240;27;20042;-87
2023/05/17 08:15:12;;;;;;;9.60;1.58;;;12.40;99.90;;;;;;4249887;27;20388;-87
2023/05/17 08:17:13;;;;;;;16.15;2.22;;;12.40;99.90;;;;;;4214923;28;20101;-87
2023/05/17 08:19:15;;;;;;;8.45;1.50;;;12.40;99.90;;;;;;4231414;28;20039;-87
2023/05/17 08:21:16;;;;;;;6.70;1.05;;;12.30;99.90;;;;;;4249988;27;20074;-86
2023/05/17 08:23:16;;;;;;;7.53;1.80;;;12.30;99.80;;;;;;4230475;28;20056;-87
2023/05/17 08:25:19;;;;;;;4.60;0.82;;;12.50;99.50;;;;;;4222588;28;20043;-87
2023/05/17 08:27:20;;;;;;;3.70;1.08;;;12.80;99.10;;;;;;4248213;27;20054;-87
2023/05/17 08:29:22;;;;;;;11.05;1.40;;;13.20;99.10;;;;;;4247661;27;20122;-86
2023/05/17 08:31:22;;;;;;;8.65;1.25;;;13.40;98.30;;;;;;4248907;27;20503;-85
2023/05/17 08:33:24;;;;;;;8.25;1.40;;;13.50;97.90;;;;;;4249256;27;20046;-86
2023/05/17 08:35:26;;;;;;;6.75;1.10;;;13.50;97.90;;;;;;4249805;27;20039;-86
2023/05/17 08:37:27;;;;;;;5.55;1.00;;;13.40;97.70;;;;;;4231883;28;20777;-86
2023/05/17 08:39:28;;;;;;;8.55;1.65;;;13.40;97.50;;;;;;4250132;27;20133;-88
2023/05/17 08:41:28;;;;;;;7.03;1.23;;;13.40;97.50;;;;;;4252167;27;20047;-87
2023/05/17 08:43:30;;;;;;;5.60;1.13;;;13.40;97.30;;;;;;4249734;27;20027;-87
2023/05/17 08:45:31;;;;;;;7.38;1.20;;;13.40;97.20;;;;;;4252526;27;20038;-89
2023/05/17 08:47:36;;;;;;;10.90;3.10;;;13.40;97.20;;;;;;4250499;27;20035;-87
2023/05/17 08:49:38;;;;;;;12.70;2.15;;;13.40;96.90;;;;;;4249235;27;20043;-87
2023/05/17 08:51:41;;;;;;;10.57;1.33;;;13.40;96.80;;;;;;4231258;28;20051;-87
2023/05/17 08:53:45;;;;;;;8.52;2.58;;;12.70;96.50;;;;;;4244475;27;20039;-87
2023/05/17 08:55:49;;;;;;;7.50;1.67;;;13.40;97.00;;;;;;4250863;27;20039;-87
2023/05/17 08:57:50;;;;;;;7.95;1.52;;;13.40;96.90;;;;;;4248731;27;20095;-86
2023/05/17 08:59:54;;;;;;;6.90;1.13;;;13.50;96.80;;;;;;4230658;28;20368;-86
2023/05/17 09:01:55;;;;;;;5.70;1.27;;;13.40;96.80;;;;;;4247210;27;20027;-86
2023/05/17 09:03:55;;;;;;;8.93;1.30;;;13.50;97.00;;;;;;4251460;27;20054;-86
2023/05/17 09:05:58;;;;;;;7.55;1.70;;;12.80;96.90;;;;;;4232631;28;20094;-86
2023/05/17 09:07:59;;;;;;;3.42;0.80;;;13.60;97.10;;;;;;4232304;28;20112;-86
2023/05/17 09:10:02;;;;;;;5.30;1.10;;;13.60;97.00;;;;;;4239131;27;20495;-86
2023/05/17 09:12:03;;;;;;;7.40;1.52;;;13.70;96.80;;;;;;4246996;27;20063;-86
2023/05/17 09:14:05;;;;;;;9.13;2.45;;;13.90;96.70;;;;;;4251393;27;20066;-86
2023/05/17 09:16:13;;;;;;;9.30;1.55;;;14.00;96.20;;;;;;4218692;28;20040;-87
2023/05/17 09:18:14;;;;;;;5.68;1.08;;;14.10;95.40;;;;;;4206522;28;20119;-87
2023/05/17 09:20:33;;;;;;;8.18;0.80;;;14.00;95.60;;;;;;4250616;28;20096;-86
2023/05/17 09:22:36;;;;;;;6.72;0.98;;;14.10;95.00;;;;;;4229354;28;20047;-86
2023/05/17 09:24:38;;;;;;;13.05;1.23;;;14.10;95.00;;;;;;4247227;28;20055;-86
2023/05/17 09:26:44;;;;;;;9.20;1.35;;;14.20;94.90;;;;;;4248166;27;20075;-85
2023/05/17 09:28:46;;;;;;;7.65;1.50;;;14.30;94.90;;;;;;4248963;28;20031;-86
2023/05/17 09:30:48;;;;;;;5.63;0.90;;;14.50;94.90;;;;;;4250256;28;20043;-86
2023/05/17 09:32:52;;;;;;;7.50;1.45;;;14.80;94.80;;;;;;4249400;28;20038;-86
2023/05/17 09:34:58;;;;;;;9.10;0.98;;;15.00;94.70;;;;;;4248788;28;20039;-86
2023/05/17 09:36:59;;;;;;;5.03;0.98;;;15.10;94.40;;;;;;4248231;28;20071;-86
2023/05/17 09:39:09;;;;;;;5.20;1.30;;;15.10;94.20;;;;;;4248640;28;20035;-86
2023/05/17 09:41:11;;;;;;;6.38;1.08;;;15.10;93.80;;;;;;4239519;27;20494;-86
2023/05/17 09:43:12;;;;;;;4.07;0.90;;;15.30;93.90;;;;;;4253218;27;20039;-86
2023/05/17 09:45:22;;;;;;;2.85;0.80;;;15.40;93.50;;;;;;4252563;27;20046;-87
2023/05/17 09:47:27;;;;;;;3.95;0.85;;;15.40;93.40;;;;;;4233581;28;20043;-85
2023/05/17 09:49:29;;;;;;;6.88;1.10;;;15.40;92.80;;;;;;4244525;27;20070;-87
2023/05/17 09:51:43;;;;;;;6.43;0.70;;;15.40;92.70;;;;;;4227705;28;20474;-87
2023/05/17 09:53:44;;;;;;;9.32;1.05;;;15.30;92.10;;;;;;4220397;28;20094;-87
2023/05/17 09:55:47;;;;;;;4.25;1.05;;;15.20;92.50;;;;;;4246112;27;20043;-84
2023/05/17 09:57:48;;;;;;;5.68;1.00;;;15.30;92.30;;;;;;4230263;28;20066;-85
2023/05/17 09:59:50;;;;;;;11.70;1.20;;;15.40;92.10;;;;;;4251357;27;20039;-85
2023/05/17 10:01:53;;;;;;;7.25;1.05;;;15.40;91.60;;;;;;4251858;27;20090;-85
2023/05/17 10:03:54;;;;;;;10.20;1.00;;;15.50;91.60;;;;;;4253270;27;20035;-85
2023/05/17 10:05:56;;;;;;;5.13;1.00;;;15.50;91.20;;;;;;4233571;28;20039;-89
2023/05/17 10:07:58;;;;;;;5.95;1.05;;;15.50;91.10;;;;;;4235599;28;20495;-88
2023/05/17 10:09:58;;;;;;;3.47;0.88;;;15.80;90.80;;;;;;4234265;28;20419;-88
2023/05/17 10:12:00;;;;;;;6.10;1.10;;;15.80;90.60;;;;;;4234675;28;20039;-85
2023/05/17 10:14:04;;;;;;;7.30;1.10;;;;;;;;;;4246445;27;20113;-85
2023/05/17 10:16:05;;;;;;;10.40;1.10;;;15.70;90.10;;;;;;4244380;27;20051;-85
2023/05/17 10:18:08;;;;;;;3.80;0.88;;;15.60;90.60;;;;;;4252204;27;20042;-85
2023/05/17 10:20:10;;;;;;;5.95;2.08;;;15.50;90.80;;;;;;4245360;27;20496;-85
2023/05/17 10:22:12;;;;;;;7.18;1.65;;;15.40;90.80;;;;;;4251488;27;20035;-87
2023/05/17 10:24:13;;;;;;;5.28;1.00;;;15.40;90.90;;;;;;4235897;27;20073;-87
2023/05/17 10:26:16;;;;;;;4.88;1.38;;;15.70;91.00;;;;;;4234963;28;20055;-87
2023/05/17 10:28:19;;;;;;;5.30;1.10;;;15.90;90.50;;;;;;4235519;28;20043;-88
2023/05/17 10:30:21;;;;;;;3.40;0.90;;;16.00;90.30;;;;;;4234914;28;20050;-87
2023/05/17 10:32:25;;;;;;;7.15;0.90;;;16.10;90.10;;;;;;4220413;28;20044;-87
2023/05/17 10:34:28;;;;;;;4.50;1.00;;;15.90;88.10;;;;;;4235898;28;20055;-89
2023/05/17 10:36:30;;;;;;;7.28;2.15;;;15.70;88.30;;;;;;4235930;28;20048;-87